createdAt,value
2022-10-11T00:01:38.867Z,4.00
2022-10-11T00:04:07.152Z,5.50
2022-10-11T00:06:34.449Z,4.00
2022-10-11T00:09:01.553Z,2.00
2022-10-11T00:11:28.482Z,5.00
2022-10-11T00:13:55.405Z,5.75
2022-10-11T00:16:22.640Z,4.25
2022-10-11T00:18:55.095Z,5.25
2022-10-11T00:21:23.599Z,5.00
2022-10-11T00:23:50.496Z,5.50
2022-10-11T00:26:18.037Z,7.50
2022-10-11T00:28:45.001Z,4.25
2022-10-11T00:31:15.502Z,4.25
2022-10-11T00:33:42.758Z,5.75
2022-10-11T00:36:11.351Z,5.00
2022-10-11T00:38:39.858Z,4.50
2022-10-11T00:41:06.794Z,4.00
2022-10-11T00:43:34.572Z,5.75
2022-10-11T00:46:35.940Z,4.25
2022-10-11T00:49:13.146Z,5.50
2022-10-11T00:51:48.524Z,6.75
2022-10-11T00:54:23.791Z,7.25
2022-10-11T00:56:58.346Z,6.00
2022-10-11T00:59:31.139Z,4.75
2022-10-11T01:01:58.147Z,6.00
2022-10-11T01:04:25.434Z,4.25
2022-10-11T01:06:54.801Z,4.75
2022-10-11T01:09:24.642Z,5.50
2022-10-11T01:11:56.096Z,5.75
2022-10-11T01:14:59.174Z,5.25
2022-10-11T01:17:44.865Z,4.25
2022-10-11T01:20:40.238Z,4.50
2022-10-11T01:24:08.530Z,4.25
2022-10-11T01:27:29.458Z,4.25
2022-10-11T01:30:15.861Z,5.50
2022-10-11T01:32:57.582Z,5.00
2022-10-11T01:35:33.417Z,6.00
2022-10-11T01:38:09.165Z,6.00
2022-10-11T01:40:45.870Z,6.00
2022-10-11T01:43:15.540Z,6.50
2022-10-11T01:45:48.139Z,6.50
2022-10-11T01:48:15.013Z,4.25
2022-10-11T01:50:46.708Z,6.00
2022-10-11T01:53:40.211Z,7.75
2022-10-11T01:56:25.955Z,8.25
2022-10-11T01:59:13.559Z,7.00
2022-10-11T02:01:58.058Z,8.00
2022-10-11T02:04:35.439Z,6.00
2022-10-11T02:07:14.958Z,7.50
2022-10-11T02:09:52.587Z,6.25
2022-10-11T02:12:42.854Z,7.00
2022-10-11T02:15:15.766Z,6.00
2022-10-11T02:17:53.975Z,7.75
2022-10-11T02:20:25.710Z,7.75
2022-10-11T02:23:01.352Z,8.50
2022-10-11T02:25:34.947Z,8.25
2022-10-11T02:28:09.434Z,8.25
2022-10-11T02:30:40.180Z,8.50
2022-10-11T02:33:14.346Z,10.25
2022-10-11T02:35:47.901Z,5.25
2022-10-11T02:38:24.415Z,9.00
2022-10-11T02:41:00.662Z,6.75
2022-10-11T02:43:36.501Z,9.00
2022-10-11T02:46:08.423Z,10.00
2022-10-11T02:48:37.995Z,8.25
2022-10-11T02:51:05.327Z,9.50
2022-10-11T02:53:33.349Z,9.00
2022-10-11T02:56:00.342Z,9.25
2022-10-11T02:58:27.572Z,10.00
2022-10-11T03:00:54.487Z,10.25
2022-10-11T03:03:21.372Z,9.25
2022-10-11T03:05:49.607Z,10.50
2022-10-11T03:08:17.120Z,6.50
2022-10-11T03:10:44.378Z,8.75
2022-10-11T03:13:14.798Z,10.75
2022-10-11T03:16:05.405Z,8.75
2022-10-11T03:18:33.170Z,10.75
2022-10-11T03:21:01.746Z,10.75
2022-10-11T03:23:28.615Z,10.75
2022-10-11T03:25:55.583Z,8.75
2022-10-11T03:28:22.729Z,8.75
2022-10-11T03:30:50.809Z,10.25
2022-10-11T03:33:18.022Z,9.50
2022-10-11T03:35:46.813Z,10.25
2022-10-11T03:38:19.182Z,10.50
2022-10-11T03:40:46.303Z,10.00
2022-10-11T03:43:13.742Z,10.50
2022-10-11T03:45:40.938Z,11.00
2022-10-11T03:48:08.988Z,7.75
2022-10-11T03:50:36.292Z,10.50
2022-10-11T03:53:05.710Z,11.75
2022-10-11T03:55:34.018Z,10.00
2022-10-11T03:58:01.020Z,10.75
2022-10-11T04:00:27.949Z,12.50
2022-10-11T04:02:54.868Z,8.75
2022-10-11T04:05:23.153Z,10.50
2022-10-11T04:07:50.404Z,8.75
2022-10-11T04:10:18.367Z,11.50
2022-10-11T04:12:46.626Z,10.25
2022-10-11T04:15:13.827Z,11.75
2022-10-11T04:17:40.944Z,12.50
2022-10-11T04:20:09.988Z,10.25
2022-10-11T04:22:37.061Z,11.00
2022-10-11T04:25:05.467Z,13.00
2022-10-11T04:27:32.553Z,10.25
2022-10-11T04:30:02.256Z,12.00
2022-10-11T04:32:29.233Z,11.50
2022-10-11T04:34:56.092Z,13.75
2022-10-11T04:37:23.000Z,14.25
2022-10-11T04:39:49.918Z,11.00
2022-10-11T04:42:16.958Z,11.50
2022-10-11T04:44:44.185Z,10.00
2022-10-11T04:47:14.135Z,12.00
2022-10-11T04:49:41.280Z,12.25
2022-10-11T04:52:08.599Z,11.25
2022-10-11T04:54:35.510Z,8.75
2022-10-11T04:57:02.584Z,11.25
2022-10-11T04:59:29.939Z,10.25
2022-10-11T05:01:56.873Z,12.00
2022-10-11T05:04:25.496Z,11.75
2022-10-11T05:06:52.608Z,6.75
2022-10-11T05:09:19.538Z,13.67
2022-10-11T05:11:46.550Z,14.00
2022-10-11T05:14:13.559Z,13.25
2022-10-11T05:16:40.546Z,10.67
2022-10-11T05:19:07.468Z,11.50
2022-10-11T05:21:35.758Z,12.25
2022-10-11T05:24:02.759Z,12.00
2022-10-11T05:26:30.253Z,10.25
2022-10-11T05:28:57.676Z,10.75
2022-10-11T05:31:24.724Z,10.75
2022-10-11T05:33:51.994Z,12.50
2022-10-11T05:36:19.503Z,12.75
2022-10-11T05:38:49.717Z,11.75
2022-10-11T05:41:18.033Z,11.50
2022-10-11T05:43:45.007Z,11.25
2022-10-11T05:46:13.034Z,12.75
2022-10-11T05:48:40.628Z,13.75
2022-10-11T05:51:09.153Z,10.00
2022-10-11T05:53:37.199Z,10.25
2022-10-11T05:56:18.116Z,11.75
2022-10-11T05:58:45.221Z,12.00
2022-10-11T06:01:18.741Z,10.50
2022-10-11T06:03:45.733Z,11.00
2022-10-11T06:06:12.653Z,9.50
2022-10-11T06:08:39.566Z,9.25
2022-10-11T06:11:16.349Z,9.75
2022-10-11T06:13:43.729Z,10.50
2022-10-11T06:16:12.351Z,9.50
2022-10-11T06:18:40.253Z,9.00
2022-10-11T06:21:07.371Z,8.00
2022-10-11T06:23:34.514Z,7.50
2022-10-11T06:26:19.494Z,8.75
2022-10-11T06:28:46.999Z,10.00
2022-10-11T06:31:14.394Z,9.50
2022-10-11T06:33:41.374Z,10.25
2022-10-11T06:36:14.573Z,8.00
2022-10-11T06:38:44.986Z,8.50
2022-10-11T06:41:17.916Z,11.75
2022-10-11T06:43:46.706Z,10.75
2022-10-11T06:46:13.563Z,12.25
2022-10-11T06:48:42.623Z,7.75
2022-10-11T06:51:10.031Z,10.00
2022-10-11T06:53:43.651Z,9.75
2022-10-11T06:56:12.622Z,12.75
2022-10-11T06:58:40.577Z,8.75
2022-10-11T07:01:12.797Z,11.50
2022-10-11T07:03:40.095Z,12.00
2022-10-11T07:06:11.154Z,11.25
2022-10-11T07:08:38.771Z,11.75
2022-10-11T07:11:08.946Z,10.25
2022-10-11T07:13:37.066Z,12.00
2022-10-11T07:16:09.739Z,11.00
2022-10-11T07:18:37.665Z,14.00
2022-10-11T07:21:08.363Z,10.00
2022-10-11T07:23:35.657Z,10.75
2022-10-11T07:26:03.445Z,11.00
2022-10-11T07:28:31.009Z,11.75
2022-10-11T07:30:59.539Z,12.75
2022-10-11T07:33:27.799Z,11.25
2022-10-11T07:35:57.641Z,12.25
2022-10-11T07:38:25.339Z,9.50
2022-10-11T07:40:52.290Z,10.25
2022-10-11T07:43:19.458Z,11.75
2022-10-11T07:45:46.369Z,9.50
2022-10-11T07:48:13.908Z,9.50
2022-10-11T07:50:42.555Z,3.00
2022-10-11T07:53:09.824Z,11.25
2022-10-11T07:55:38.142Z,9.25
2022-10-11T07:58:05.195Z,11.50
2022-10-11T08:00:32.084Z,11.25
2022-10-11T08:03:01.013Z,8.75
2022-10-11T08:05:28.304Z,11.75
2022-10-11T08:07:57.117Z,10.25
2022-10-11T08:10:24.371Z,10.00
2022-10-11T08:12:51.260Z,10.75
2022-10-11T08:15:19.220Z,12.75
2022-10-11T08:17:46.473Z,9.00
2022-10-11T08:20:14.328Z,11.75
2022-10-11T08:22:41.384Z,11.75
2022-10-11T08:25:09.879Z,11.75
2022-10-11T08:27:37.153Z,11.50
2022-10-11T08:30:06.415Z,8.00
2022-10-11T08:32:34.258Z,11.25
2022-10-11T08:35:01.647Z,5.00
2022-10-11T08:37:28.781Z,10.75
2022-10-11T08:39:55.896Z,11.00
2022-10-11T08:42:35.174Z,9.25
2022-10-11T08:45:11.383Z,10.50
2022-10-11T08:47:44.216Z,10.25
2022-10-11T08:50:19.812Z,12.25
2022-10-11T08:52:53.060Z,10.25
2022-10-11T08:55:28.704Z,9.67
2022-10-11T08:57:58.969Z,5.00
2022-10-11T09:00:32.645Z,10.75
2022-10-11T09:03:14.870Z,9.00
2022-10-11T09:06:07.270Z,6.00
2022-10-11T09:08:55.411Z,8.00
2022-10-11T09:11:39.357Z,10.75
2022-10-11T09:14:46.740Z,9.00
2022-10-11T09:17:31.346Z,7.00
2022-10-11T09:20:38.750Z,9.00
2022-10-11T09:23:26.924Z,8.75
2022-10-11T09:26:01.639Z,10.00
2022-10-11T09:28:49.683Z,8.00
2022-10-11T09:31:18.378Z,9.20
2022-10-11T09:33:49.543Z,7.80
2022-10-11T09:36:28.744Z,8.20
2022-10-11T09:39:07.124Z,7.60
2022-10-11T09:41:42.752Z,7.40
2022-10-11T09:44:22.974Z,9.00
2022-10-11T09:46:55.281Z,8.80
2022-10-11T09:49:29.705Z,7.00
2022-10-11T09:52:02.286Z,8.20
2022-10-11T09:54:41.064Z,9.00
2022-10-11T09:57:22.718Z,8.80
2022-10-11T10:00:05.345Z,10.20
2022-10-11T10:02:43.830Z,9.60
2022-10-11T10:05:18.996Z,8.40
2022-10-11T10:08:22.645Z,8.25
2022-10-11T10:11:00.880Z,8.80
2022-10-11T10:13:41.357Z,8.00
2022-10-11T10:16:24.878Z,6.20
2022-10-11T10:18:57.110Z,9.50
2022-10-11T10:21:31.398Z,8.25
2022-10-11T10:24:02.230Z,8.75
2022-10-11T10:26:30.303Z,9.25
2022-10-11T10:29:14.320Z,8.75
2022-10-11T10:34:56.566Z,7.40
2022-10-11T10:37:29.679Z,7.80
2022-10-11T10:40:06.454Z,8.00
2022-10-11T10:42:33.657Z,8.60
2022-10-11T10:45:01.386Z,9.25
2022-10-11T10:47:51.340Z,7.50
2022-10-11T10:50:31.414Z,9.00
2022-10-11T10:53:21.057Z,6.20
2022-10-11T10:55:58.165Z,6.00
2022-10-11T10:58:46.596Z,8.60
2022-10-11T11:01:23.074Z,7.00
2022-10-11T11:04:04.571Z,5.20
2022-10-11T11:06:44.385Z,7.60
2022-10-11T11:09:30.891Z,8.20
2022-10-11T11:12:14.482Z,7.80
2022-10-11T11:14:55.677Z,9.20
2022-10-11T11:17:43.590Z,7.80
2022-10-11T11:20:31.612Z,9.60
2022-10-11T11:23:18.056Z,9.00
2022-10-11T11:25:57.296Z,10.80
2022-10-11T11:29:03.409Z,7.40
2022-10-11T11:31:58.994Z,8.00
2022-10-11T11:34:32.841Z,4.80
2022-10-11T11:37:06.231Z,8.75
2022-10-11T11:39:44.433Z,9.50
2022-10-11T11:42:17.867Z,8.50
2022-10-11T11:44:48.234Z,8.50
2022-10-11T11:47:23.298Z,8.75
2022-10-11T11:49:59.641Z,9.75
2022-10-11T11:52:35.715Z,5.00
2022-10-11T11:55:16.606Z,8.75
2022-10-11T11:58:06.987Z,8.75
2022-10-11T12:00:48.734Z,9.25
2022-10-11T12:03:24.204Z,9.75
2022-10-11T12:07:11.398Z,8.50
2022-10-11T12:13:22.260Z,8.25
2022-10-11T12:16:09.161Z,9.50
2022-10-11T12:18:51.547Z,9.25
2022-10-11T12:21:28.301Z,11.00
2022-10-11T12:23:58.671Z,9.50
2022-10-11T12:26:44.417Z,9.25
2022-10-11T12:29:53.877Z,10.50
2022-10-11T12:32:50.518Z,10.00
2022-10-11T12:35:57.992Z,9.00
2022-10-11T12:38:32.495Z,10.00
2022-10-11T12:41:38.194Z,9.25
2022-10-11T12:44:22.233Z,9.75
2022-10-11T12:47:30.528Z,10.25
2022-10-11T12:50:21.472Z,11.75
2022-10-11T12:53:03.257Z,9.50
2022-10-11T12:55:46.780Z,8.75
2022-10-11T12:58:31.929Z,8.75
2022-10-11T13:01:18.428Z,8.25
2022-10-11T13:03:57.595Z,7.75
2022-10-11T13:06:28.848Z,9.50
2022-10-11T13:09:02.907Z,7.75
2022-10-11T13:11:33.594Z,7.25
2022-10-11T13:14:10.915Z,7.00
2022-10-11T13:16:57.850Z,7.75
2022-10-11T13:19:25.203Z,6.75
2022-10-11T13:32:54.866Z,8.00
2022-10-11T13:35:33.403Z,9.25
2022-10-11T13:38:01.370Z,7.50
2022-10-11T13:40:30.510Z,10.25
2022-10-11T13:42:59.462Z,9.00
2022-10-11T13:45:29.271Z,8.75
2022-10-11T13:47:56.699Z,7.50
2022-10-11T13:50:27.865Z,8.50
2022-10-11T13:52:58.179Z,9.00
2022-10-11T13:55:33.600Z,12.50
2022-10-11T13:58:08.789Z,9.25
2022-10-11T14:00:39.302Z,8.50
2022-10-11T14:03:18.844Z,6.25
2022-10-11T14:05:55.816Z,7.50
2022-10-11T14:08:31.977Z,9.00
2022-10-11T14:11:05.118Z,7.75
2022-10-11T14:13:37.433Z,8.00
2022-10-11T14:16:09.415Z,8.75
2022-10-11T14:18:47.118Z,9.00
2022-10-11T14:21:33.045Z,6.50
2022-10-11T14:24:03.373Z,3.50
2022-10-11T14:26:35.206Z,6.50
2022-10-11T14:29:07.877Z,7.50
2022-10-11T14:31:41.891Z,7.00
2022-10-11T14:34:18.491Z,7.00
2022-10-11T14:36:45.542Z,8.75
2022-10-11T14:39:16.240Z,6.75
2022-10-11T14:41:43.183Z,6.25
2022-10-11T14:44:10.052Z,7.50
2022-10-11T14:46:39.304Z,7.25
2022-10-11T14:49:12.933Z,8.25
2022-10-11T14:51:40.847Z,7.75
2022-10-11T14:54:08.336Z,6.50
2022-10-11T14:56:35.468Z,8.25
2022-10-11T14:59:02.372Z,8.75
2022-10-11T15:01:29.193Z,7.25
2022-10-11T15:03:57.477Z,7.00
2022-10-11T15:06:30.801Z,5.50
2022-10-11T15:08:57.774Z,9.00
2022-10-11T15:11:24.953Z,10.50
2022-10-11T15:13:51.728Z,8.50
2022-10-11T15:16:21.251Z,9.25
2022-10-11T15:18:49.640Z,8.00
2022-10-11T15:21:21.167Z,6.75
2022-10-11T15:23:49.746Z,8.00
2022-10-11T15:26:20.808Z,8.75
2022-10-11T15:28:49.877Z,9.50
2022-10-11T15:31:17.125Z,8.75
2022-10-11T15:33:44.122Z,8.50
2022-10-11T15:36:14.506Z,8.50
2022-10-11T15:38:43.728Z,10.00
2022-10-11T15:41:34.304Z,8.25
2022-10-11T15:43:59.995Z,7.25
2022-10-11T15:46:44.480Z,8.00
2022-10-11T15:49:13.142Z,8.50
2022-10-11T15:51:41.020Z,8.00
2022-10-11T15:54:09.467Z,9.25
2022-10-11T15:56:38.851Z,8.50
2022-10-11T16:03:36.271Z,9.75
2022-10-11T16:06:05.690Z,10.00
2022-10-11T16:08:33.569Z,9.25
2022-10-11T16:11:03.133Z,8.75
2022-10-11T16:13:30.309Z,9.50
2022-10-11T16:15:57.508Z,10.25
2022-10-11T16:18:24.435Z,6.50
2022-10-11T16:20:52.806Z,10.25
2022-10-11T16:23:30.966Z,10.50
2022-10-11T16:26:20.647Z,9.00
2022-10-11T16:28:48.704Z,8.75
2022-10-11T16:31:18.382Z,8.25
2022-10-11T16:33:46.222Z,10.25
2022-10-11T16:36:15.851Z,6.50
2022-10-11T16:38:44.944Z,8.25
2022-10-11T16:41:12.000Z,8.75
2022-10-11T16:43:40.233Z,8.50
2022-10-11T16:46:07.676Z,8.00
2022-10-11T16:48:37.722Z,7.75
2022-10-11T16:51:10.870Z,9.75
2022-10-11T16:53:53.589Z,11.50
2022-10-11T16:56:24.066Z,10.25
2022-10-11T16:58:53.435Z,10.00
2022-10-11T17:01:21.598Z,9.50
2022-10-11T17:03:49.830Z,8.50
2022-10-11T17:06:17.865Z,9.25
2022-10-11T17:08:46.730Z,9.50
2022-10-11T17:11:18.187Z,9.75
2022-10-11T17:13:46.360Z,9.00
2022-10-11T17:16:15.577Z,9.25
2022-10-11T17:18:43.042Z,10.75
2022-10-11T17:21:33.746Z,9.00
2022-10-11T17:24:03.183Z,10.50
2022-10-11T17:26:34.664Z,8.75
2022-10-11T17:29:15.389Z,13.25
2022-10-11T17:32:57.007Z,10.25
2022-10-11T17:35:25.645Z,11.75
2022-10-11T17:37:52.666Z,10.75
2022-10-11T17:40:19.746Z,1.25
2022-10-11T17:42:46.747Z,11.75
2022-10-11T17:45:13.935Z,12.25
2022-10-11T17:47:40.986Z,9.75
2022-10-11T17:50:08.439Z,12.00
2022-10-11T17:52:36.872Z,10.67
2022-10-11T17:55:04.590Z,9.67
2022-10-11T17:57:32.758Z,11.67
2022-10-11T17:59:59.589Z,11.00
2022-10-11T18:02:27.025Z,12.67
2022-10-11T18:05:04.671Z,11.25
2022-10-11T18:07:36.438Z,9.00
2022-10-11T18:10:03.713Z,11.50
2022-10-11T18:12:30.773Z,11.00
2022-10-11T18:15:08.551Z,10.33
2022-10-11T18:17:35.964Z,11.50
2022-10-11T18:20:04.488Z,11.33
2022-10-11T18:22:34.121Z,12.67
2022-10-11T18:25:02.933Z,16.75
2022-10-11T18:27:29.969Z,18.75
2022-10-11T18:29:58.104Z,11.33
2022-10-11T18:32:25.358Z,12.67
2022-10-11T18:34:52.324Z,11.67
2022-10-11T18:37:19.118Z,11.00
2022-10-11T18:39:46.154Z,11.67
2022-10-11T18:42:14.437Z,11.00
2022-10-11T18:44:41.682Z,11.33
2022-10-11T18:47:08.563Z,13.00
2022-10-11T18:49:35.788Z,12.25
2022-10-11T18:52:02.758Z,12.00
2022-10-11T18:54:30.101Z,13.75
2022-10-11T18:56:58.395Z,17.75
2022-10-11T18:59:27.127Z,17.25
2022-10-11T19:01:54.191Z,18.25
2022-10-11T19:04:21.207Z,12.67
2022-10-11T19:06:49.637Z,15.50
2022-10-11T19:09:19.440Z,17.25
2022-10-11T19:11:46.297Z,8.00
2022-10-11T19:14:17.151Z,14.50
2022-10-11T19:16:48.866Z,17.25
2022-10-11T19:19:16.787Z,21.25
2022-10-11T19:21:43.826Z,22.50
2022-10-11T19:24:10.885Z,23.00
2022-10-11T19:26:40.295Z,16.00
2022-10-11T19:29:10.620Z,17.25
2022-10-11T19:31:43.150Z,23.50
2022-10-11T19:34:11.881Z,17.50
2022-10-11T19:36:39.819Z,17.75
2022-10-11T19:39:07.004Z,12.25
2022-10-11T19:41:34.087Z,13.33
2022-10-11T19:44:00.936Z,14.50
2022-10-11T19:49:17.953Z,14.25
2022-10-11T19:51:44.954Z,13.00
2022-10-11T19:54:15.138Z,12.25
2022-10-11T19:56:42.843Z,15.50
2022-10-11T19:59:11.108Z,11.25
2022-10-11T20:01:39.315Z,12.00
2022-10-11T20:04:12.884Z,10.00
2022-10-11T20:06:47.423Z,12.00
2022-10-11T20:09:29.156Z,13.00
2022-10-11T20:11:57.079Z,12.33
2022-10-11T20:14:24.542Z,13.33
2022-10-11T20:16:51.804Z,11.33
2022-10-11T20:19:19.118Z,10.33
2022-10-11T20:21:47.626Z,10.33
2022-10-11T20:24:15.235Z,11.33
2022-10-11T20:26:42.383Z,13.33
2022-10-11T20:29:09.324Z,13.33
2022-10-11T20:31:36.817Z,12.33
2022-10-11T20:34:04.359Z,11.67
2022-10-11T20:36:33.351Z,10.33
2022-10-11T20:39:02.128Z,10.67
2022-10-11T20:41:31.607Z,13.67
2022-10-11T20:44:01.125Z,12.00
2022-10-11T20:46:31.030Z,12.00
2022-10-11T20:49:02.109Z,13.33
2022-10-11T20:51:31.241Z,11.50
2022-10-11T20:53:59.159Z,12.25
2022-10-11T20:56:28.083Z,10.67
2022-10-11T20:58:57.732Z,12.00
2022-10-11T21:01:27.600Z,9.00
2022-10-11T21:03:56.571Z,11.33
2022-10-11T21:06:24.552Z,9.75
2022-10-11T21:08:51.707Z,10.67
2022-10-11T21:11:18.522Z,8.00
2022-10-11T21:13:46.678Z,8.33
2022-10-11T21:16:16.269Z,10.67
2022-10-11T21:18:43.085Z,7.50
2022-10-11T21:21:12.696Z,9.25
2022-10-11T21:23:40.483Z,10.00
2022-10-11T21:26:11.276Z,9.67
2022-10-11T21:28:39.543Z,8.33
2022-10-11T21:31:10.995Z,8.00
2022-10-11T21:33:38.732Z,8.00
2022-10-11T21:36:08.145Z,9.00
2022-10-11T21:38:36.164Z,9.33
2022-10-11T21:41:04.834Z,7.33
2022-10-11T21:43:33.578Z,6.75
2022-10-11T21:46:07.301Z,9.67
2022-10-11T21:48:35.476Z,6.67
2022-10-11T21:51:02.287Z,7.50
2022-10-11T21:53:29.151Z,9.67
2022-10-11T21:55:57.266Z,6.33
2022-10-11T21:58:24.172Z,7.50
2022-10-11T22:00:51.312Z,7.50
2022-10-11T22:03:18.594Z,9.67
2022-10-11T22:05:47.682Z,6.00
2022-10-11T22:08:15.625Z,8.67
2022-10-11T22:10:43.640Z,7.67
2022-10-11T22:13:11.202Z,9.00
2022-10-11T22:15:39.132Z,7.67
2022-10-11T22:18:05.985Z,7.33
2022-10-11T22:20:33.869Z,7.25
2022-10-11T22:23:01.992Z,7.67
2022-10-11T22:25:29.033Z,8.67
2022-10-11T22:27:56.142Z,6.75
2022-10-11T22:30:23.143Z,7.33
2022-10-11T22:32:51.115Z,7.33
2022-10-11T22:35:17.954Z,7.00
2022-10-11T22:37:44.838Z,7.67
2022-10-11T22:40:13.486Z,5.00
2022-10-11T22:42:40.251Z,9.00
2022-10-11T22:45:07.924Z,6.67
2022-10-11T22:47:35.288Z,5.00
2022-10-11T22:50:02.771Z,7.50
2022-10-11T22:52:29.628Z,3.00
2022-10-11T22:54:56.608Z,7.00
2022-10-11T22:57:24.890Z,7.33
2022-10-11T22:59:52.255Z,8.75
2022-10-11T23:02:19.262Z,7.25
2022-10-11T23:04:46.070Z,6.50
2022-10-11T23:07:12.834Z,7.00
2022-10-11T23:09:39.685Z,6.00
2022-10-11T23:12:07.528Z,6.25
2022-10-11T23:14:35.723Z,8.00
2022-10-11T23:17:02.564Z,9.25
2022-10-11T23:19:29.455Z,5.67
2022-10-11T23:21:56.487Z,6.00
2022-10-11T23:24:23.221Z,7.67
2022-10-11T23:26:50.228Z,6.33
2022-10-11T23:29:17.350Z,8.67
2022-10-11T23:31:45.565Z,7.67
2022-10-11T23:34:12.379Z,8.00
2022-10-11T23:36:39.379Z,7.67
2022-10-11T23:39:06.243Z,6.33
2022-10-11T23:41:33.219Z,7.25
2022-10-11T23:43:59.989Z,7.25
2022-10-11T23:46:27.110Z,7.25
2022-10-11T23:48:55.531Z,7.50
2022-10-11T23:51:22.380Z,8.25
2022-10-11T23:53:49.232Z,8.33
2022-10-11T23:56:16.369Z,5.33
2022-10-11T23:58:43.184Z,7.00
